createdAt,value
2018-07-07T00:03:07.389Z,18.60
2018-07-07T00:08:00.419Z,18.54
2018-07-07T00:12:53.545Z,18.48
2018-07-07T00:17:47.225Z,18.40
2018-07-07T00:22:40.268Z,18.34
2018-07-07T00:27:33.359Z,18.28
2018-07-07T00:32:26.303Z,18.20
2018-07-07T00:37:19.288Z,18.11
2018-07-07T00:42:12.240Z,18.05
2018-07-07T00:47:05.309Z,17.96
2018-07-07T00:51:58.326Z,17.91
2018-07-07T00:56:51.362Z,17.83
2018-07-07T01:01:44.355Z,17.77
2018-07-07T01:06:37.447Z,17.70
2018-07-07T01:11:30.492Z,17.62
2018-07-07T01:16:23.541Z,17.53
2018-07-07T01:21:16.456Z,17.44
2018-07-07T01:26:10.086Z,17.38
2018-07-07T01:31:03.104Z,17.32
2018-07-07T01:35:56.097Z,17.24
2018-07-07T01:40:49.091Z,17.15
2018-07-07T01:45:42.050Z,17.07
2018-07-07T01:50:35.034Z,17.01
2018-07-07T01:55:27.975Z,16.93
2018-07-07T02:00:21.006Z,16.85
2018-07-07T02:05:14.026Z,16.77
2018-07-07T02:10:07.009Z,16.69
2018-07-07T02:15:00.030Z,16.63
2018-07-07T02:19:53.029Z,16.58
2018-07-07T02:24:46.001Z,16.50
2018-07-07T02:29:39.092Z,16.43
2018-07-07T02:34:32.176Z,16.37
2018-07-07T02:39:25.270Z,16.35
2018-07-07T02:44:18.307Z,16.28
2018-07-07T02:49:11.319Z,16.25
2018-07-07T02:54:04.241Z,16.16
2018-07-07T02:58:57.257Z,16.13
2018-07-07T03:03:50.257Z,16.09
2018-07-07T03:08:43.285Z,16.04
2018-07-07T03:13:36.309Z,15.99
2018-07-07T03:18:29.415Z,15.94
2018-07-07T03:23:22.456Z,15.90
2018-07-07T03:28:15.516Z,15.89
2018-07-07T03:33:08.644Z,15.87
2018-07-07T03:38:01.630Z,15.82
2018-07-07T03:42:54.605Z,15.74
2018-07-07T03:47:47.603Z,15.73
2018-07-07T03:52:40.653Z,15.72
2018-07-07T03:57:33.640Z,15.69
2018-07-07T04:02:26.674Z,15.64
2018-07-07T04:07:19.695Z,15.63
2018-07-07T04:12:12.631Z,15.63
2018-07-07T04:17:05.822Z,15.64
2018-07-07T04:21:58.891Z,15.64
2018-07-07T04:26:51.880Z,15.61
2018-07-07T04:31:44.876Z,15.59
2018-07-07T04:36:37.903Z,15.62
2018-07-07T04:41:30.861Z,15.62
2018-07-07T04:46:23.868Z,15.58
2018-07-07T04:51:16.898Z,15.61
2018-07-07T04:56:09.919Z,15.62
2018-07-07T05:01:03.017Z,15.65
2018-07-07T05:05:56.050Z,15.66
2018-07-07T05:10:49.064Z,15.70
2018-07-07T05:15:42.005Z,15.70
2018-07-07T05:20:34.995Z,15.74
2018-07-07T05:25:28.015Z,15.74
2018-07-07T05:30:21.048Z,15.76
2018-07-07T05:35:14.036Z,15.74
2018-07-07T05:40:07.119Z,15.74
2018-07-07T05:45:00.139Z,15.76
2018-07-07T05:49:53.162Z,15.82
2018-07-07T05:54:46.210Z,15.85
2018-07-07T05:59:39.201Z,15.88
2018-07-07T06:04:32.188Z,15.92
2018-07-07T06:09:25.311Z,15.94
2018-07-07T06:14:18.346Z,15.99
2018-07-07T06:19:11.473Z,16.04
2018-07-07T06:24:04.706Z,16.06
2018-07-07T06:28:57.855Z,16.10
2018-07-07T06:33:50.853Z,16.10
2018-07-07T06:38:44.081Z,16.13
2018-07-07T06:43:37.115Z,16.21
2018-07-07T06:48:30.060Z,16.23
2018-07-07T06:53:23.063Z,16.29
2018-07-07T06:58:16.107Z,16.37
2018-07-07T07:03:09.104Z,16.43
2018-07-07T07:08:02.230Z,16.53
2018-07-07T07:12:55.259Z,16.65
2018-07-07T07:17:48.269Z,16.82
2018-07-07T07:22:41.193Z,17.01
2018-07-07T07:27:34.185Z,17.34
2018-07-07T07:32:27.209Z,18.73
2018-07-07T07:37:20.232Z,20.52
2018-07-07T07:42:13.182Z,21.62
2018-07-07T07:47:06.155Z,22.98
2018-07-07T07:51:59.098Z,23.91
2018-07-07T07:56:52.340Z,24.44
2018-07-07T08:01:45.352Z,24.57
2018-07-07T08:06:38.528Z,24.92
2018-07-07T08:11:31.442Z,25.37
2018-07-07T08:16:24.431Z,25.50
2018-07-07T08:21:17.623Z,24.62
2018-07-07T08:26:11.020Z,23.42
2018-07-07T08:31:04.037Z,22.76
2018-07-07T08:35:57.041Z,22.39
2018-07-07T08:40:50.143Z,22.13
2018-07-07T08:45:43.872Z,22.29
2018-07-07T08:50:36.910Z,22.56
2018-07-07T08:55:30.001Z,22.56
2018-07-07T09:00:22.999Z,22.50
2018-07-07T09:05:15.988Z,22.51
2018-07-07T09:10:09.108Z,22.46
2018-07-07T09:15:02.184Z,22.23
2018-07-07T09:19:55.252Z,22.08
2018-07-07T09:24:48.162Z,22.09
2018-07-07T09:29:41.137Z,21.95
2018-07-07T09:34:34.183Z,21.75
2018-07-07T09:39:27.152Z,21.87
2018-07-07T09:44:20.147Z,21.90
2018-07-07T09:49:13.249Z,22.09
2018-07-07T09:54:06.356Z,22.18
2018-07-07T09:58:59.355Z,22.27
2018-07-07T10:03:52.349Z,22.49
2018-07-07T10:08:45.401Z,22.70
2018-07-07T10:13:38.471Z,23.11
2018-07-07T10:18:31.599Z,23.38
2018-07-07T10:23:24.620Z,23.66
2018-07-07T10:28:17.759Z,23.84
2018-07-07T10:33:10.695Z,23.97
2018-07-07T10:38:03.635Z,24.20
2018-07-07T10:42:56.597Z,24.42
2018-07-07T10:47:49.613Z,24.63
2018-07-07T10:52:42.510Z,24.84
2018-07-07T10:57:35.440Z,25.00
2018-07-07T11:02:28.445Z,25.14
2018-07-07T11:07:21.399Z,25.25
2018-07-07T11:12:14.527Z,25.29
2018-07-07T11:17:07.478Z,25.54
2018-07-07T11:22:00.415Z,25.64
2018-07-07T11:26:53.643Z,25.78
2018-07-07T11:31:46.672Z,25.89
2018-07-07T11:36:39.948Z,25.95
2018-07-07T11:41:32.930Z,26.07
2018-07-07T11:46:26.053Z,26.27
2018-07-07T11:51:19.057Z,26.38
2018-07-07T11:56:12.050Z,26.47
2018-07-07T12:01:05.151Z,26.43
2018-07-07T12:05:58.152Z,26.70
2018-07-07T12:10:51.140Z,26.87
2018-07-07T12:15:44.158Z,27.04
2018-07-07T12:20:37.292Z,27.22
2018-07-07T12:25:30.417Z,27.28
2018-07-07T12:30:23.477Z,27.36
2018-07-07T12:35:16.622Z,27.53
2018-07-07T12:40:09.618Z,27.65
2018-07-07T12:45:02.704Z,27.67
2018-07-07T12:55:21.204Z,27.94
2018-07-07T13:00:14.185Z,27.76
2018-07-07T13:05:07.460Z,27.84
2018-07-07T13:10:00.378Z,27.96
2018-07-07T13:14:53.347Z,27.85
2018-07-07T13:19:46.315Z,27.87
2018-07-07T13:24:39.334Z,28.03
2018-07-07T13:29:32.275Z,28.13
2018-07-07T13:34:25.500Z,28.19
2018-07-07T13:39:18.623Z,28.27
2018-07-07T13:44:11.617Z,28.32
2018-07-07T13:49:04.760Z,28.46
2018-07-07T13:53:57.913Z,28.57
2018-07-07T13:58:51.160Z,28.61
2018-07-07T14:03:44.103Z,28.64
2018-07-07T14:08:37.095Z,28.73
2018-07-07T14:13:30.150Z,28.62
2018-07-07T14:18:23.184Z,28.69
2018-07-07T14:23:16.204Z,28.68
2018-07-07T14:28:09.200Z,28.67
2018-07-07T14:33:02.168Z,28.72
2018-07-07T14:37:55.112Z,28.68
2018-07-07T14:42:49.223Z,28.65
2018-07-07T14:47:42.899Z,28.69
2018-07-07T14:52:35.994Z,28.75
2018-07-07T14:57:28.999Z,28.74
2018-07-07T15:02:22.078Z,28.78
2018-07-07T15:07:15.156Z,28.76
2018-07-07T15:12:08.140Z,28.57
2018-07-07T15:17:01.103Z,28.49
2018-07-07T15:21:54.139Z,28.49
2018-07-07T15:26:47.190Z,28.51
2018-07-07T15:31:40.398Z,28.42
2018-07-07T15:36:33.417Z,28.29
2018-07-07T15:41:26.420Z,28.27
2018-07-07T15:46:19.485Z,28.25
2018-07-07T15:51:12.570Z,28.25
2018-07-07T15:56:05.614Z,28.24
2018-07-07T16:00:58.698Z,28.24
2018-07-07T16:05:51.916Z,28.25
2018-07-07T16:10:44.891Z,28.27
2018-07-07T16:15:37.894Z,28.27
2018-07-07T16:20:30.972Z,28.22
2018-07-07T16:25:24.233Z,28.13
2018-07-07T16:30:17.221Z,28.05
2018-07-07T16:35:10.266Z,27.96
2018-07-07T16:40:03.818Z,27.91
2018-07-07T16:44:57.518Z,27.86
2018-07-07T16:49:50.676Z,27.79
2018-07-07T16:54:43.892Z,27.74
2018-07-07T16:59:37.331Z,27.70
2018-07-07T17:04:30.400Z,27.65
2018-07-07T17:09:24.012Z,27.58
2018-07-07T17:14:17.220Z,27.50
2018-07-07T17:19:11.473Z,27.42
2018-07-07T17:24:04.982Z,27.33
2018-07-07T17:28:58.230Z,27.22
2018-07-07T17:33:51.191Z,27.12
2018-07-07T17:38:44.476Z,27.10
2018-07-07T17:43:37.607Z,27.05
2018-07-07T17:48:30.725Z,26.97
2018-07-07T17:53:23.832Z,26.90
2018-07-07T17:58:17.536Z,26.84
2018-07-07T18:03:10.624Z,26.72
2018-07-07T18:08:03.863Z,26.64
2018-07-07T18:12:56.855Z,26.58
2018-07-07T18:17:50.171Z,26.47
2018-07-07T18:22:43.279Z,26.39
2018-07-07T18:27:36.281Z,26.29
2018-07-07T18:32:29.284Z,26.14
2018-07-07T18:37:22.420Z,26.05
2018-07-07T18:42:15.489Z,25.98
2018-07-07T18:47:08.414Z,25.90
2018-07-07T18:52:01.434Z,25.83
2018-07-07T18:56:54.572Z,25.73
2018-07-07T19:01:47.649Z,25.60
2018-07-07T19:06:40.672Z,25.49
2018-07-07T19:11:33.735Z,25.39
2018-07-07T19:16:26.845Z,25.28
2018-07-07T19:21:25.511Z,25.18
2018-07-07T19:26:24.090Z,25.08
2018-07-07T19:31:17.104Z,24.93
2018-07-07T19:37:14.214Z,24.85
2018-07-07T19:42:07.263Z,24.72
2018-07-07T19:47:00.335Z,24.61
2018-07-07T19:51:53.369Z,24.53
2018-07-07T19:56:46.332Z,24.42
2018-07-07T20:01:39.643Z,24.34
2018-07-07T20:06:32.607Z,24.25
2018-07-07T20:11:25.593Z,24.15
2018-07-07T20:16:28.532Z,24.08
2018-07-07T20:21:44.326Z,23.99
2018-07-07T20:26:41.415Z,23.90
2018-07-07T20:31:38.971Z,23.84
2018-07-07T20:36:31.942Z,23.77
2018-07-07T20:41:24.855Z,23.68
2018-07-07T20:46:17.819Z,23.61
2018-07-07T20:51:10.848Z,23.53
2018-07-07T20:56:03.897Z,23.44
2018-07-07T21:00:56.874Z,23.34
2018-07-07T21:05:49.834Z,23.27
2018-07-07T21:10:42.901Z,23.17
2018-07-07T21:15:35.920Z,23.12
2018-07-07T21:20:28.932Z,23.01
2018-07-07T21:25:22.055Z,22.90
2018-07-07T21:30:15.078Z,22.84
2018-07-07T21:35:08.120Z,22.77
2018-07-07T21:40:01.096Z,22.68
2018-07-07T21:44:54.350Z,22.58
2018-07-07T21:49:47.435Z,22.51
2018-07-07T21:54:40.412Z,22.42
2018-07-07T21:59:33.338Z,22.36
2018-07-07T22:04:33.212Z,22.28
2018-07-07T22:09:26.200Z,22.19
2018-07-07T22:14:19.183Z,22.12
2018-07-07T22:19:12.209Z,22.06
2018-07-07T22:24:05.262Z,22.00
2018-07-07T22:28:58.291Z,21.91
2018-07-07T22:33:51.328Z,21.80
2018-07-07T22:38:59.970Z,21.71
2018-07-07T22:43:53.201Z,21.61
2018-07-07T22:48:47.019Z,21.51
2018-07-07T22:53:39.980Z,21.46
2018-07-07T22:58:32.876Z,21.40
2018-07-07T23:03:25.863Z,21.37
2018-07-07T23:08:18.958Z,21.33
2018-07-07T23:13:11.893Z,21.27
2018-07-07T23:18:04.931Z,21.18
2018-07-07T23:22:57.935Z,21.09
2018-07-07T23:27:51.299Z,21.01
2018-07-07T23:32:44.471Z,20.91
2018-07-07T23:37:37.460Z,20.85
2018-07-07T23:42:30.428Z,20.76
2018-07-07T23:47:23.449Z,20.69
2018-07-07T23:52:16.488Z,20.64
2018-07-07T23:57:09.527Z,20.59
